sensor_id;sensor_type;location;lat;lon;timestamp;pressure;altitude;pressure_sealevel;temperature;humidity
22031;BME280;11179;52.106;21.024;2023-03-14T00:02:16;98875.97;;;8.77;57.82
22031;BME280;11179;52.106;21.024;2023-03-14T00:04:41;98872.16;;;8.73;58.01
22031;BME280;11179;52.106;21.024;2023-03-14T00:07:06;98885.03;;;8.67;58.19
22031;BME280;11179;52.106;21.024;2023-03-14T00:09:31;98892.47;;;8.61;58.13
22031;BME280;11179;52.106;21.024;2023-03-14T00:11:57;98878.81;;;8.56;58.27
22031;BME280;11179;52.106;21.024;2023-03-14T00:14:23;98869.81;;;8.51;58.67
22031;BME280;11179;52.106;21.024;2023-03-14T00:16:48;98863.25;;;8.47;58.46
22031;BME280;11179;52.106;21.024;2023-03-14T00:19:14;98864.91;;;8.43;58.78
22031;BME280;11179;52.106;21.024;2023-03-14T00:21:39;98858.91;;;8.41;58.62
22031;BME280;11179;52.106;21.024;2023-03-14T00:24:05;98861.91;;;8.39;58.49
22031;BME280;11179;52.106;21.024;2023-03-14T00:26:31;98844.44;;;8.35;58.56
22031;BME280;11179;52.106;21.024;2023-03-14T00:28:56;98844.19;;;8.37;58.54
22031;BME280;11179;52.106;21.024;2023-03-14T00:31:21;98851.28;;;8.32;58.63
22031;BME280;11179;52.106;21.024;2023-03-14T00:33:47;98847.75;;;8.32;58.57
22031;BME280;11179;52.106;21.024;2023-03-14T00:36:14;98831.88;;;8.29;58.56
22031;BME280;11179;52.106;21.024;2023-03-14T00:38:41;98837.34;;;8.29;58.28
22031;BME280;11179;52.106;21.024;2023-03-14T00:41:15;98840.09;;;8.29;58.66
22031;BME280;11179;52.106;21.024;2023-03-14T00:43:42;98835.72;;;8.28;58.58
22031;BME280;11179;52.106;21.024;2023-03-14T00:46:08;98820.72;;;8.20;58.43
22031;BME280;11179;52.106;21.024;2023-03-14T00:48:34;98817.16;;;8.25;58.19
22031;BME280;11179;52.106;21.024;2023-03-14T00:50:59;98807.06;;;8.20;58.17
22031;BME280;11179;52.106;21.024;2023-03-14T00:53:24;98798.84;;;8.20;58.08
22031;BME280;11179;52.106;21.024;2023-03-14T00:55:50;98781.91;;;8.13;58.34
22031;BME280;11179;52.106;21.024;2023-03-14T00:58:17;98778.88;;;8.15;58.21
22031;BME280;11179;52.106;21.024;2023-03-14T01:00:43;98791.78;;;8.09;58.17
22031;BME280;11179;52.106;21.024;2023-03-14T01:03:10;98782.19;;;8.12;57.97
22031;BME280;11179;52.106;21.024;2023-03-14T01:05:35;98778.66;;;8.11;57.81
22031;BME280;11179;52.106;21.024;2023-03-14T01:08:01;98764.19;;;8.06;57.75
22031;BME280;11179;52.106;21.024;2023-03-14T01:10:26;98763.63;;;8.09;57.79
22031;BME280;11179;52.106;21.024;2023-03-14T01:12:52;98754.88;;;8.12;57.81
22031;BME280;11179;52.106;21.024;2023-03-14T01:15:19;98760.63;;;8.10;57.60
22031;BME280;11179;52.106;21.024;2023-03-14T01:17:45;98753.50;;;8.09;57.26
22031;BME280;11179;52.106;21.024;2023-03-14T01:20:12;98743.69;;;8.03;57.29
22031;BME280;11179;52.106;21.024;2023-03-14T01:22:39;98742.84;;;8.08;57.40
22031;BME280;11179;52.106;21.024;2023-03-14T01:25:10;98751.88;;;8.08;57.37
22031;BME280;11179;52.106;21.024;2023-03-14T01:27:36;98755.69;;;8.07;57.17
22031;BME280;11179;52.106;21.024;2023-03-14T01:30:03;98747.50;;;8.02;57.13
22031;BME280;11179;52.106;21.024;2023-03-14T01:32:28;98755.72;;;8.02;57.30
22031;BME280;11179;52.106;21.024;2023-03-14T01:34:54;98746.75;;;7.96;56.87
22031;BME280;11179;52.106;21.024;2023-03-14T01:37:19;98742.09;;;7.97;56.92
22031;BME280;11179;52.106;21.024;2023-03-14T01:39:46;98744.84;;;7.92;57.01
22031;BME280;11179;52.106;21.024;2023-03-14T01:42:11;98749.81;;;7.85;57.35
22031;BME280;11179;52.106;21.024;2023-03-14T01:47:37;98762.91;;;7.83;57.19
22031;BME280;11179;52.106;21.024;2023-03-14T01:50:08;98769.47;;;7.82;57.27
22031;BME280;11179;52.106;21.024;2023-03-14T01:52:38;98766.47;;;7.78;57.13
22031;BME280;11179;52.106;21.024;2023-03-14T01:55:10;98769.50;;;7.77;57.31
22031;BME280;11179;52.106;21.024;2023-03-14T01:57:40;98764.56;;;7.74;57.32
22031;BME280;11179;52.106;21.024;2023-03-14T02:00:12;98756.66;;;7.72;57.44
22031;BME280;11179;52.106;21.024;2023-03-14T02:02:45;98751.50;;;7.71;57.33
22031;BME280;11179;52.106;21.024;2023-03-14T02:05:15;98757.22;;;7.69;57.14
22031;BME280;11179;52.106;21.024;2023-03-14T02:07:58;98745.75;;;7.67;57.27
22031;BME280;11179;52.106;21.024;2023-03-14T02:10:29;98745.50;;;7.63;57.23
22031;BME280;11179;52.106;21.024;2023-03-14T02:12:56;98736.75;;;7.61;57.08
22031;BME280;11179;52.106;21.024;2023-03-14T02:15:24;98737.03;;;7.60;57.00
22031;BME280;11179;52.106;21.024;2023-03-14T02:17:50;98726.41;;;7.53;56.99
22031;BME280;11179;52.106;21.024;2023-03-14T02:23:15;98733.25;;;7.46;56.82
22031;BME280;11179;52.106;21.024;2023-03-14T02:25:48;98723.72;;;7.43;56.99
22031;BME280;11179;52.106;21.024;2023-03-14T02:28:16;98716.06;;;7.45;56.68
22031;BME280;11179;52.106;21.024;2023-03-14T02:30:41;98716.63;;;7.42;57.05
22031;BME280;11179;52.106;21.024;2023-03-14T02:33:10;98691.25;;;7.37;57.00
22031;BME280;11179;52.106;21.024;2023-03-14T02:35:40;98695.88;;;7.36;57.11
22031;BME280;11179;52.106;21.024;2023-03-14T02:38:15;98689.88;;;7.34;56.84
22031;BME280;11179;52.106;21.024;2023-03-14T02:40:42;98685.50;;;7.33;56.98
22031;BME280;11179;52.106;21.024;2023-03-14T02:43:07;98680.59;;;7.35;56.93
22031;BME280;11179;52.106;21.024;2023-03-14T02:45:36;98684.13;;;7.36;56.86
22031;BME280;11179;52.106;21.024;2023-03-14T02:48:11;98661.25;;;7.32;56.88
22031;BME280;11179;52.106;21.024;2023-03-14T02:50:37;98666.44;;;7.28;56.75
22031;BME280;11179;52.106;21.024;2023-03-14T02:53:03;98681.19;;;7.27;56.78
22031;BME280;11179;52.106;21.024;2023-03-14T02:55:28;98679.81;;;7.29;57.08
22031;BME280;11179;52.106;21.024;2023-03-14T02:57:53;98680.63;;;7.30;56.84
22031;BME280;11179;52.106;21.024;2023-03-14T03:00:19;98677.91;;;7.25;56.75
22031;BME280;11179;52.106;21.024;2023-03-14T03:02:45;98680.91;;;7.28;56.63
22031;BME280;11179;52.106;21.024;2023-03-14T03:05:11;98669.97;;;7.28;56.87
22031;BME280;11179;52.106;21.024;2023-03-14T03:07:36;98676.81;;;7.31;56.38
22031;BME280;11179;52.106;21.024;2023-03-14T03:10:03;98685.53;;;7.28;56.74
22031;BME280;11179;52.106;21.024;2023-03-14T03:12:28;98679.81;;;7.24;56.45
22031;BME280;11179;52.106;21.024;2023-03-14T03:14:53;98678.44;;;7.22;56.52
22031;BME280;11179;52.106;21.024;2023-03-14T03:17:19;98683.38;;;7.20;56.50
22031;BME280;11179;52.106;21.024;2023-03-14T03:19:44;98685.53;;;7.23;56.43
22031;BME280;11179;52.106;21.024;2023-03-14T03:22:09;98670.28;;;7.17;56.44
22031;BME280;11179;52.106;21.024;2023-03-14T03:24:35;98672.72;;;7.23;56.67
22031;BME280;11179;52.106;21.024;2023-03-14T03:27:00;98673.25;;;7.25;56.39
22031;BME280;11179;52.106;21.024;2023-03-14T03:29:25;98676.53;;;7.27;56.51
22031;BME280;11179;52.106;21.024;2023-03-14T03:31:51;98659.38;;;7.17;56.53
22031;BME280;11179;52.106;21.024;2023-03-14T03:34:16;98662.88;;;7.22;56.43
22031;BME280;11179;52.106;21.024;2023-03-14T03:36:41;98670.03;;;7.18;56.14
22031;BME280;11179;52.106;21.024;2023-03-14T03:39:07;98676.84;;;7.16;56.32
22031;BME280;11179;52.106;21.024;2023-03-14T03:41:32;98673.56;;;7.14;56.11
22031;BME280;11179;52.106;21.024;2023-03-14T03:43:58;98670.28;;;7.12;56.33
22031;BME280;11179;52.106;21.024;2023-03-14T03:46:24;98655.00;;;7.06;56.23
22031;BME280;11179;52.106;21.024;2023-03-14T03:48:58;98653.66;;;7.08;56.54
22031;BME280;11179;52.106;21.024;2023-03-14T03:51:23;98661.03;;;7.08;56.34
22031;BME280;11179;52.106;21.024;2023-03-14T03:53:49;98653.41;;;7.05;56.55
22031;BME280;11179;52.106;21.024;2023-03-14T03:56:14;98641.69;;;7.04;56.65
22031;BME280;11179;52.106;21.024;2023-03-14T03:58:39;98640.84;;;7.04;56.32
22031;BME280;11179;52.106;21.024;2023-03-14T04:01:06;98635.91;;;7.06;56.33
22031;BME280;11179;52.106;21.024;2023-03-14T04:03:35;98640.59;;;7.05;56.19
22031;BME280;11179;52.106;21.024;2023-03-14T04:06:03;98630.75;;;7.04;56.19
22031;BME280;11179;52.106;21.024;2023-03-14T04:08:29;98629.94;;;6.99;56.33
22031;BME280;11179;52.106;21.024;2023-03-14T04:10:59;98637.59;;;7.02;56.19
22031;BME280;11179;52.106;21.024;2023-03-14T04:13:26;98632.69;;;6.93;56.09
22031;BME280;11179;52.106;21.024;2023-03-14T04:15:53;98641.44;;;6.90;56.24
22031;BME280;11179;52.106;21.024;2023-03-14T04:18:19;98658.06;;;6.89;56.20
22031;BME280;11179;52.106;21.024;2023-03-14T04:20:45;98661.63;;;6.89;56.33
22031;BME280;11179;52.106;21.024;2023-03-14T04:23:11;98656.16;;;6.89;56.39
22031;BME280;11179;52.106;21.024;2023-03-14T04:25:36;98651.53;;;6.85;56.10
22031;BME280;11179;52.106;21.024;2023-03-14T04:28:01;98647.44;;;6.82;56.31
22031;BME280;11179;52.106;21.024;2023-03-14T04:30:28;98655.63;;;6.87;56.29
22031;BME280;11179;52.106;21.024;2023-03-14T04:32:53;98670.34;;;6.86;56.16
22031;BME280;11179;52.106;21.024;2023-03-14T04:35:19;98662.16;;;6.81;55.93
22031;BME280;11179;52.106;21.024;2023-03-14T04:37:44;98666.81;;;6.86;55.83
22031;BME280;11179;52.106;21.024;2023-03-14T04:40:10;98656.16;;;6.79;56.06
22031;BME280;11179;52.106;21.024;2023-03-14T04:42:36;98664.91;;;6.81;56.02
22031;BME280;11179;52.106;21.024;2023-03-14T04:45:02;98652.63;;;6.79;56.32
22031;BME280;11179;52.106;21.024;2023-03-14T04:47:28;98640.63;;;6.85;56.29
22031;BME280;11179;52.106;21.024;2023-03-14T04:49:53;98633.25;;;6.85;56.37
22031;BME280;11179;52.106;21.024;2023-03-14T04:52:19;98622.88;;;6.87;56.53
22031;BME280;11179;52.106;21.024;2023-03-14T04:54:44;98620.69;;;6.89;56.35
22031;BME280;11179;52.106;21.024;2023-03-14T04:57:09;98613.06;;;6.91;56.31
22031;BME280;11179;52.106;21.024;2023-03-14T04:59:35;98621.22;;;6.97;56.04
22031;BME280;11179;52.106;21.024;2023-03-14T05:02:00;98614.94;;;6.96;56.31
22031;BME280;11179;52.106;21.024;2023-03-14T05:04:25;98609.22;;;7.03;55.88
22031;BME280;11179;52.106;21.024;2023-03-14T05:06:50;98620.94;;;7.03;56.04
22031;BME280;11179;52.106;21.024;2023-03-14T05:09:16;98607.03;;;7.05;55.87
22031;BME280;11179;52.106;21.024;2023-03-14T05:11:42;98594.47;;;7.04;56.10
22031;BME280;11179;52.106;21.024;2023-03-14T05:14:07;98574.81;;;7.02;55.84
22031;BME280;11179;52.106;21.024;2023-03-14T05:16:33;98581.06;;;7.07;55.77
22031;BME280;11179;52.106;21.024;2023-03-14T05:18:58;98572.88;;;7.12;55.76
22031;BME280;11179;52.106;21.024;2023-03-14T05:21:23;98579.16;;;7.13;55.64
22031;BME280;11179;52.106;21.024;2023-03-14T05:23:49;98591.41;;;7.15;55.66
22031;BME280;11179;52.106;21.024;2023-03-14T05:26:14;98586.75;;;7.21;55.55
22031;BME280;11179;52.106;21.024;2023-03-14T05:28:41;98598.47;;;7.26;55.59
22031;BME280;11179;52.106;21.024;2023-03-14T05:31:07;98604.19;;;7.30;55.42
22031;BME280;11179;52.106;21.024;2023-03-14T05:33:33;98601.41;;;7.35;55.44
22031;BME280;11179;52.106;21.024;2023-03-14T05:35:58;98573.56;;;7.38;55.31
22031;BME280;11179;52.106;21.024;2023-03-14T05:38:23;98592.34;;;7.50;55.14
22031;BME280;11179;52.106;21.024;2023-03-14T05:40:49;98570.69;;;7.63;54.89
22031;BME280;11179;52.106;21.024;2023-03-14T05:43:14;98576.13;;;8.08;54.63
22031;BME280;11179;52.106;21.024;2023-03-14T05:45:41;98565.25;;;8.37;53.78
22031;BME280;11179;52.106;21.024;2023-03-14T05:48:07;98561.84;;;8.50;53.62
22031;BME280;11179;52.106;21.024;2023-03-14T05:50:32;98555.09;;;8.66;53.05
22031;BME280;11179;52.106;21.024;2023-03-14T05:52:57;98558.28;;;8.78;52.56
22031;BME280;11179;52.106;21.024;2023-03-14T05:55:23;98556.06;;;9.04;52.20
22031;BME280;11179;52.106;21.024;2023-03-14T05:57:48;98540.75;;;9.22;52.05
22031;BME280;11179;52.106;21.024;2023-03-14T06:00:14;98546.56;;;9.39;51.71
22031;BME280;11179;52.106;21.024;2023-03-14T06:02:39;98522.88;;;9.48;51.35
22031;BME280;11179;52.106;21.024;2023-03-14T06:05:05;98526.59;;;9.57;51.15
22031;BME280;11179;52.106;21.024;2023-03-14T06:07:30;98524.81;;;9.66;50.98
22031;BME280;11179;52.106;21.024;2023-03-14T06:09:56;98522.00;;;9.90;50.23
22031;BME280;11179;52.106;21.024;2023-03-14T06:12:21;98519.97;;;10.28;49.71
22031;BME280;11179;52.106;21.024;2023-03-14T06:14:46;98517.41;;;10.64;48.31
22031;BME280;11179;52.106;21.024;2023-03-14T06:17:11;98507.22;;;11.06;48.07
22031;BME280;11179;52.106;21.024;2023-03-14T06:19:37;98502.44;;;11.39;47.85
22031;BME280;11179;52.106;21.024;2023-03-14T06:22:02;98494.47;;;11.73;46.92
22031;BME280;11179;52.106;21.024;2023-03-14T06:24:27;98489.44;;;11.89;45.99
22031;BME280;11179;52.106;21.024;2023-03-14T06:26:53;98505.72;;;11.63;45.69
22031;BME280;11179;52.106;21.024;2023-03-14T06:29:18;98498.53;;;11.17;45.79
22031;BME280;11179;52.106;21.024;2023-03-14T06:31:43;98494.31;;;10.79;46.54
22031;BME280;11179;52.106;21.024;2023-03-14T06:34:09;98502.66;;;10.46;46.74
22031;BME280;11179;52.106;21.024;2023-03-14T06:36:34;98499.06;;;10.32;47.25
22031;BME280;11179;52.106;21.024;2023-03-14T06:38:59;98492.78;;;10.32;47.43
22031;BME280;11179;52.106;21.024;2023-03-14T06:41:25;98497.44;;;10.31;47.48
22031;BME280;11179;52.106;21.024;2023-03-14T06:43:51;98484.44;;;10.23;47.61
22031;BME280;11179;52.106;21.024;2023-03-14T06:46:17;98490.72;;;10.24;47.81
22031;BME280;11179;52.106;21.024;2023-03-14T06:48:42;98489.91;;;10.23;47.78
22031;BME280;11179;52.106;21.024;2023-03-14T06:51:07;98483.81;;;10.26;47.97
22031;BME280;11179;52.106;21.024;2023-03-14T06:53:33;98495.34;;;10.56;47.83
22031;BME280;11179;52.106;21.024;2023-03-14T06:55:58;98489.56;;;10.71;47.89
22031;BME280;11179;52.106;21.024;2023-03-14T06:58:24;98480.59;;;10.79;47.36
22031;BME280;11179;52.106;21.024;2023-03-14T07:00:49;98484.44;;;10.92;47.35
22031;BME280;11179;52.106;21.024;2023-03-14T07:03:14;98482.13;;;10.99;47.17
22031;BME280;11179;52.106;21.024;2023-03-14T07:05:40;98474.25;;;11.33;46.90
22031;BME280;11179;52.106;21.024;2023-03-14T07:08:07;98483.13;;;11.88;45.96
22031;BME280;11179;52.106;21.024;2023-03-14T07:10:33;98475.50;;;12.08;45.42
22031;BME280;11179;52.106;21.024;2023-03-14T07:12:58;98481.84;;;12.17;44.82
22031;BME280;11179;52.106;21.024;2023-03-14T07:15:24;98479.94;;;12.17;44.87
22031;BME280;11179;52.106;21.024;2023-03-14T07:17:49;98477.63;;;12.11;44.58
22031;BME280;11179;52.106;21.024;2023-03-14T07:20:15;98479.31;;;11.98;44.43
22031;BME280;11179;52.106;21.024;2023-03-14T07:22:40;98492.38;;;11.93;44.72
22031;BME280;11179;52.106;21.024;2023-03-14T07:25:06;98497.88;;;11.93;44.83
22031;BME280;11179;52.106;21.024;2023-03-14T07:27:32;98493.50;;;11.91;44.91
22031;BME280;11179;52.106;21.024;2023-03-14T07:29:57;98496.06;;;11.88;44.62
22031;BME280;11179;52.106;21.024;2023-03-14T07:32:22;98500.38;;;12.03;44.63
22031;BME280;11179;52.106;21.024;2023-03-14T07:34:48;98503.31;;;12.51;44.42
22031;BME280;11179;52.106;21.024;2023-03-14T07:37:13;98507.44;;;12.71;43.58
22031;BME280;11179;52.106;21.024;2023-03-14T07:39:38;98511.47;;;13.04;43.64
22031;BME280;11179;52.106;21.024;2023-03-14T07:42:04;98504.47;;;13.55;43.45
22031;BME280;11179;52.106;21.024;2023-03-14T07:44:29;98490.81;;;14.01;43.05
22031;BME280;11179;52.106;21.024;2023-03-14T07:46:55;98500.44;;;14.59;41.97
22031;BME280;11179;52.106;21.024;2023-03-14T07:49:20;98482.66;;;14.86;41.30
22031;BME280;11179;52.106;21.024;2023-03-14T07:51:49;98489.56;;;15.01;41.26
22031;BME280;11179;52.106;21.024;2023-03-14T07:54:14;98490.97;;;15.07;40.61
22031;BME280;11179;52.106;21.024;2023-03-14T07:56:40;98497.00;;;15.09;40.63
22031;BME280;11179;52.106;21.024;2023-03-14T07:59:05;98509.84;;;15.05;39.92
22031;BME280;11179;52.106;21.024;2023-03-14T08:01:31;98502.09;;;15.28;39.88
22031;BME280;11179;52.106;21.024;2023-03-14T08:03:56;98494.31;;;15.51;39.77
22031;BME280;11179;52.106;21.024;2023-03-14T08:06:21;98503.06;;;15.82;39.04
22031;BME280;11179;52.106;21.024;2023-03-14T08:08:46;98493.56;;;16.04;38.66
22031;BME280;11179;52.106;21.024;2023-03-14T08:11:12;98490.47;;;15.85;38.17
22031;BME280;11179;52.106;21.024;2023-03-14T08:13:37;98494.22;;;15.59;38.66
22031;BME280;11179;52.106;21.024;2023-03-14T08:16:03;98501.44;;;15.52;38.52
22031;BME280;11179;52.106;21.024;2023-03-14T08:18:29;98508.53;;;15.40;39.02
22031;BME280;11179;52.106;21.024;2023-03-14T08:20:55;98499.75;;;15.38;39.13
22031;BME280;11179;52.106;21.024;2023-03-14T08:23:20;98500.78;;;15.55;39.15
22031;BME280;11179;52.106;21.024;2023-03-14T08:25:49;98494.53;;;15.87;38.71
22031;BME280;11179;52.106;21.024;2023-03-14T08:28:15;98495.16;;;16.26;38.77
22031;BME280;11179;52.106;21.024;2023-03-14T08:30:40;98499.84;;;16.46;38.26
22031;BME280;11179;52.106;21.024;2023-03-14T08:33:06;98493.47;;;16.45;37.78
22031;BME280;11179;52.106;21.024;2023-03-14T08:35:31;98499.97;;;16.49;37.75
22031;BME280;11179;52.106;21.024;2023-03-14T08:37:56;98513.78;;;16.82;38.10
22031;BME280;11179;52.106;21.024;2023-03-14T08:40:22;98507.78;;;17.05;37.79
22031;BME280;11179;52.106;21.024;2023-03-14T08:42:47;98509.66;;;17.01;37.11
22031;BME280;11179;52.106;21.024;2023-03-14T08:45:14;98510.59;;;17.17;37.11
22031;BME280;11179;52.106;21.024;2023-03-14T08:47:39;98508.97;;;17.52;36.75
22031;BME280;11179;52.106;21.024;2023-03-14T08:50:05;98495.25;;;17.72;36.52
22031;BME280;11179;52.106;21.024;2023-03-14T08:52:31;98495.91;;;17.93;36.44
22031;BME280;11179;52.106;21.024;2023-03-14T08:54:57;98507.81;;;17.93;35.53
22031;BME280;11179;52.106;21.024;2023-03-14T08:57:22;98496.78;;;17.69;35.49
22031;BME280;11179;52.106;21.024;2023-03-14T08:59:53;98495.59;;;17.82;35.81
22031;BME280;11179;52.106;21.024;2023-03-14T09:02:18;98490.25;;;18.17;35.85
22031;BME280;11179;52.106;21.024;2023-03-14T09:04:43;98494.38;;;18.36;35.59
22031;BME280;11179;52.106;21.024;2023-03-14T09:07:08;98482.47;;;18.51;35.01
22031;BME280;11179;52.106;21.024;2023-03-14T09:09:34;98485.16;;;18.79;34.46
22031;BME280;11179;52.106;21.024;2023-03-14T09:11:59;98481.13;;;18.92;34.58
22031;BME280;11179;52.106;21.024;2023-03-14T09:14:25;98478.28;;;18.88;34.50
22031;BME280;11179;52.106;21.024;2023-03-14T09:16:50;98472.72;;;18.73;34.56
22031;BME280;11179;52.106;21.024;2023-03-14T09:19:16;98469.38;;;18.67;34.18
22031;BME280;11179;52.106;21.024;2023-03-14T09:21:41;98474.25;;;18.70;34.38
22031;BME280;11179;52.106;21.024;2023-03-14T09:24:06;98452.81;;;18.86;34.92
22031;BME280;11179;52.106;21.024;2023-03-14T09:26:32;98458.44;;;19.06;34.16
22031;BME280;11179;52.106;21.024;2023-03-14T09:28:58;98452.75;;;19.18;34.17
22031;BME280;11179;52.106;21.024;2023-03-14T09:31:23;98446.34;;;19.49;34.29
22031;BME280;11179;52.106;21.024;2023-03-14T09:33:48;98431.03;;;19.58;33.56
22031;BME280;11179;52.106;21.024;2023-03-14T09:36:14;98437.66;;;19.69;33.66
22031;BME280;11179;52.106;21.024;2023-03-14T09:38:39;98436.78;;;19.85;33.71
22031;BME280;11179;52.106;21.024;2023-03-14T09:41:23;98433.25;;;19.88;33.50
22031;BME280;11179;52.106;21.024;2023-03-14T09:44:04;98428.56;;;19.73;33.08
22031;BME280;11179;52.106;21.024;2023-03-14T09:46:31;98417.75;;;19.67;33.74
22031;BME280;11179;52.106;21.024;2023-03-14T09:48:58;98424.53;;;19.51;33.72
22031;BME280;11179;52.106;21.024;2023-03-14T09:51:24;98418.00;;;19.43;33.82
22031;BME280;11179;52.106;21.024;2023-03-14T09:53:51;98416.69;;;19.37;32.99
22031;BME280;11179;52.106;21.024;2023-03-14T09:56:20;98405.69;;;19.44;33.52
22031;BME280;11179;52.106;21.024;2023-03-14T09:58:57;98412.00;;;19.60;33.11
22031;BME280;11179;52.106;21.024;2023-03-14T10:01:30;98395.59;;;19.36;32.82
22031;BME280;11179;52.106;21.024;2023-03-14T10:03:57;98407.44;;;19.33;33.30
22031;BME280;11179;52.106;21.024;2023-03-14T10:06:26;98408.25;;;19.18;33.12
22031;BME280;11179;52.106;21.024;2023-03-14T10:08:52;98404.38;;;18.87;33.31
22031;BME280;11179;52.106;21.024;2023-03-14T10:11:19;98404.94;;;18.77;33.86
22031;BME280;11179;52.106;21.024;2023-03-14T10:14:04;98417.00;;;18.38;34.02
22031;BME280;11179;52.106;21.024;2023-03-14T10:16:33;98416.13;;;18.06;34.11
22031;BME280;11179;52.106;21.024;2023-03-14T10:19:09;98418.31;;;17.56;34.31
22031;BME280;11179;52.106;21.024;2023-03-14T10:21:41;98417.75;;;17.39;35.05
22031;BME280;11179;52.106;21.024;2023-03-14T10:24:25;98408.78;;;17.30;35.39
22031;BME280;11179;52.106;21.024;2023-03-14T10:26:58;98409.31;;;17.35;35.24
22031;BME280;11179;52.106;21.024;2023-03-14T10:29:26;98403.66;;;17.32;35.83
22031;BME280;11179;52.106;21.024;2023-03-14T10:31:54;98414.03;;;17.47;35.57
22031;BME280;11179;52.106;21.024;2023-03-14T10:34:25;98404.44;;;17.44;35.63
22031;BME280;11179;52.106;21.024;2023-03-14T10:36:58;98403.28;;;17.45;35.92
22031;BME280;11179;52.106;21.024;2023-03-14T10:42:01;98391.38;;;17.45;35.90
22031;BME280;11179;52.106;21.024;2023-03-14T10:44:28;98393.75;;;17.31;35.93
22031;BME280;11179;52.106;21.024;2023-03-14T10:47:04;98394.56;;;17.19;36.04
22031;BME280;11179;52.106;21.024;2023-03-14T10:49:36;98388.34;;;17.10;36.36
22031;BME280;11179;52.106;21.024;2023-03-14T10:52:23;98391.00;;;17.06;36.20
22031;BME280;11179;52.106;21.024;2023-03-14T10:54:56;98392.41;;;17.00;36.59
22031;BME280;11179;52.106;21.024;2023-03-14T10:57:22;98381.19;;;16.97;36.83
22031;BME280;11179;52.106;21.024;2023-03-14T10:59:47;98387.88;;;17.08;36.96
22031;BME280;11179;52.106;21.024;2023-03-14T11:07:40;98398.66;;;16.85;37.08
22031;BME280;11179;52.106;21.024;2023-03-14T11:12:52;98398.44;;;16.90;37.17
22031;BME280;11179;52.106;21.024;2023-03-14T11:15:30;98397.03;;;16.96;37.03
22031;BME280;11179;52.106;21.024;2023-03-14T11:18:21;98394.47;;;17.15;37.29
22031;BME280;11179;52.106;21.024;2023-03-14T11:26:45;98407.47;;;17.39;36.60
22031;BME280;11179;52.106;21.024;2023-03-14T11:29:26;98409.00;;;17.25;36.95
22031;BME280;11179;52.106;21.024;2023-03-14T11:31:55;98407.97;;;17.05;36.84
22031;BME280;11179;52.106;21.024;2023-03-14T11:34:38;98397.50;;;16.86;36.88
22031;BME280;11179;52.106;21.024;2023-03-14T11:37:28;98389.53;;;16.72;37.19
22031;BME280;11179;52.106;21.024;2023-03-14T11:42:32;98386.75;;;16.48;37.82
22031;BME280;11179;52.106;21.024;2023-03-14T11:45:00;98383.97;;;16.36;37.74
22031;BME280;11179;52.106;21.024;2023-03-14T11:47:29;98395.09;;;16.15;37.98
22031;BME280;11179;52.106;21.024;2023-03-14T11:50:25;98408.22;;;16.06;38.18
22031;BME280;11179;52.106;21.024;2023-03-14T11:53:10;98400.56;;;15.91;38.49
22031;BME280;11179;52.106;21.024;2023-03-14T11:55:40;98392.22;;;15.78;38.63
22031;BME280;11179;52.106;21.024;2023-03-14T11:58:17;98396.47;;;15.76;38.87
22031;BME280;11179;52.106;21.024;2023-03-14T12:00:45;98394.38;;;15.73;39.17
22031;BME280;11179;52.106;21.024;2023-03-14T12:03:21;98414.84;;;15.80;39.10
22031;BME280;11179;52.106;21.024;2023-03-14T12:11:08;98390.50;;;16.19;39.22
22031;BME280;11179;52.106;21.024;2023-03-14T12:13:37;98398.50;;;16.33;38.92
22031;BME280;11179;52.106;21.024;2023-03-14T12:16:06;98398.72;;;16.40;38.72
22031;BME280;11179;52.106;21.024;2023-03-14T12:18:36;98395.03;;;16.48;38.83
22031;BME280;11179;52.106;21.024;2023-03-14T12:21:09;98404.25;;;16.40;38.92
22031;BME280;11179;52.106;21.024;2023-03-14T12:23:42;98404.25;;;16.40;39.27
22031;BME280;11179;52.106;21.024;2023-03-14T12:28:36;98403.91;;;16.41;39.13
22031;BME280;11179;52.106;21.024;2023-03-14T12:44:42;98414.91;;;15.72;40.41
22031;BME280;11179;52.106;21.024;2023-03-14T12:49:44;98402.38;;;15.54;40.59
22031;BME280;11179;52.106;21.024;2023-03-14T12:52:21;98407.13;;;15.44;40.54
22031;BME280;11179;52.106;21.024;2023-03-14T12:57:40;98407.28;;;15.27;41.05
22031;BME280;11179;52.106;21.024;2023-03-14T13:00:31;98414.38;;;15.16;41.13
22031;BME280;11179;52.106;21.024;2023-03-14T13:03:22;98416.66;;;15.14;41.67
22031;BME280;11179;52.106;21.024;2023-03-14T13:05:59;98416.25;;;15.03;42.03
22031;BME280;11179;52.106;21.024;2023-03-14T13:08:35;98417.38;;;15.02;42.72
22031;BME280;11179;52.106;21.024;2023-03-14T13:11:02;98420.00;;;14.99;43.52
22031;BME280;11179;52.106;21.024;2023-03-14T13:13:34;98411.44;;;14.62;44.86
22031;BME280;11179;52.106;21.024;2023-03-14T13:16:01;98428.31;;;14.52;45.14
22031;BME280;11179;52.106;21.024;2023-03-14T13:18:36;98440.22;;;14.44;45.85
22031;BME280;11179;52.106;21.024;2023-03-14T13:23:32;98443.91;;;14.01;48.04
22031;BME280;11179;52.106;21.024;2023-03-14T13:26:00;98448.31;;;13.94;48.09
22031;BME280;11179;52.106;21.024;2023-03-14T13:28:26;98445.22;;;13.87;48.47
22031;BME280;11179;52.106;21.024;2023-03-14T13:31:01;98433.53;;;13.90;48.95
22031;BME280;11179;52.106;21.024;2023-03-14T13:33:28;98435.50;;;13.89;48.95
22031;BME280;11179;52.106;21.024;2023-03-14T13:35:58;98436.13;;;13.86;49.51
22031;BME280;11179;52.106;21.024;2023-03-14T13:38:29;98452.88;;;13.81;49.79
22031;BME280;11179;52.106;21.024;2023-03-14T13:40:57;98440.88;;;13.68;49.71
22031;BME280;11179;52.106;21.024;2023-03-14T13:43:40;98440.03;;;13.51;50.40
22031;BME280;11179;52.106;21.024;2023-03-14T13:46:15;98444.88;;;13.45;50.72
22031;BME280;11179;52.106;21.024;2023-03-14T13:48:56;98446.00;;;13.36;51.00
22031;BME280;11179;52.106;21.024;2023-03-14T13:51:23;98449.09;;;13.34;51.01
22031;BME280;11179;52.106;21.024;2023-03-14T13:53:52;98455.91;;;13.28;51.27